createdAt,value
2022-10-19T00:00:24.261Z,13.36
2022-10-19T00:01:24.248Z,13.36
2022-10-19T00:02:24.416Z,13.33
2022-10-19T00:03:24.221Z,13.36
2022-10-19T00:04:24.209Z,13.37
2022-10-19T00:05:24.206Z,13.37
2022-10-19T00:06:24.186Z,13.37
2022-10-19T00:07:24.170Z,13.39
2022-10-19T00:08:24.212Z,13.39
2022-10-19T00:09:24.147Z,13.39
2022-10-19T00:10:24.139Z,13.37
2022-10-19T00:11:25.952Z,13.37
2022-10-19T00:12:24.121Z,13.36
2022-10-19T00:13:24.109Z,13.37
2022-10-19T00:14:24.142Z,13.37
2022-10-19T00:15:24.082Z,13.36
2022-10-19T00:16:24.090Z,13.33
2022-10-19T00:17:24.063Z,13.31
2022-10-19T00:18:24.115Z,13.31
2022-10-19T00:19:24.045Z,13.31
2022-10-19T00:20:24.085Z,13.31
2022-10-19T00:21:24.024Z,13.28
2022-10-19T00:22:24.027Z,13.28
2022-10-19T00:23:24.046Z,13.28
2022-10-19T00:24:23.990Z,13.27
2022-10-19T00:25:23.970Z,13.23
2022-10-19T00:26:24.011Z,13.20
2022-10-19T00:27:23.958Z,13.20
2022-10-19T00:28:23.964Z,13.19
2022-10-19T00:29:24.012Z,13.17
2022-10-19T00:30:23.919Z,13.12
2022-10-19T00:31:23.910Z,13.12
2022-10-19T00:32:24.041Z,13.09
2022-10-19T00:33:23.876Z,13.08
2022-10-19T00:34:23.892Z,13.05
2022-10-19T00:35:23.875Z,13.03
2022-10-19T00:36:23.869Z,13.03
2022-10-19T00:37:23.844Z,13.02
2022-10-19T00:38:23.888Z,13.02
2022-10-19T00:39:23.818Z,13.02
2022-10-19T00:40:23.829Z,13.02
2022-10-19T00:41:23.801Z,13.01
2022-10-19T00:42:23.786Z,12.99
2022-10-19T00:43:23.781Z,12.99
2022-10-19T00:44:23.805Z,12.98
2022-10-19T00:45:23.748Z,12.95
2022-10-19T00:46:23.754Z,12.94
2022-10-19T00:47:23.729Z,12.95
2022-10-19T00:48:23.720Z,12.94
2022-10-19T00:49:23.727Z,12.90
2022-10-19T00:50:23.742Z,12.90
2022-10-19T00:51:23.683Z,12.86
2022-10-19T00:52:23.699Z,12.83
2022-10-19T00:53:23.692Z,12.81
2022-10-19T00:54:23.643Z,12.78
2022-10-19T00:55:23.640Z,12.80
2022-10-19T00:56:23.660Z,12.76
2022-10-19T00:57:23.610Z,12.80
2022-10-19T00:58:23.649Z,12.80
2022-10-19T00:59:23.614Z,12.78
2022-10-19T01:00:23.595Z,12.76
2022-10-19T01:01:23.627Z,12.75
2022-10-19T01:02:23.875Z,12.75
2022-10-19T01:03:23.561Z,12.75
2022-10-19T01:04:23.560Z,12.76
2022-10-19T01:05:23.528Z,12.81
2022-10-19T01:06:23.515Z,12.81
2022-10-19T01:07:23.497Z,12.83
2022-10-19T01:08:23.534Z,12.84
2022-10-19T01:09:23.470Z,12.83
2022-10-19T01:10:23.480Z,12.83
2022-10-19T01:11:24.478Z,12.81
2022-10-19T01:12:23.448Z,12.80
2022-10-19T01:13:23.438Z,12.81
2022-10-19T01:14:23.477Z,12.80
2022-10-19T01:15:23.432Z,12.78
2022-10-19T01:16:23.412Z,12.76
2022-10-19T01:17:23.390Z,12.78
2022-10-19T01:18:23.373Z,12.76
2022-10-19T01:19:23.364Z,12.75
2022-10-19T01:20:23.402Z,12.73
2022-10-19T01:21:23.348Z,12.75
2022-10-19T01:22:23.346Z,12.73
2022-10-19T01:23:23.327Z,12.72
2022-10-19T01:24:23.339Z,12.68
2022-10-19T01:25:23.294Z,12.65
2022-10-19T01:26:23.450Z,12.63
2022-10-19T01:27:23.297Z,12.62
2022-10-19T01:28:23.524Z,12.61
2022-10-19T01:29:23.251Z,12.57
2022-10-19T01:30:23.244Z,12.57
2022-10-19T01:31:23.233Z,12.54
2022-10-19T01:32:23.271Z,12.54
2022-10-19T01:33:23.252Z,12.53
2022-10-19T01:34:23.204Z,12.51
2022-10-19T01:35:23.187Z,12.48
2022-10-19T01:36:23.172Z,12.50
2022-10-19T01:37:23.164Z,12.48
2022-10-19T01:38:23.969Z,12.48
2022-10-19T01:39:23.134Z,12.48
2022-10-19T01:40:23.144Z,12.47
2022-10-19T01:41:23.113Z,12.47
2022-10-19T01:42:23.105Z,12.48
2022-10-19T01:43:23.209Z,12.51
2022-10-19T01:44:23.139Z,12.53
2022-10-19T01:45:23.969Z,12.58
2022-10-19T01:46:23.056Z,12.63
2022-10-19T01:47:23.056Z,12.68
2022-10-19T01:48:23.036Z,12.73
2022-10-19T01:49:23.028Z,12.76
2022-10-19T01:50:23.057Z,12.78
2022-10-19T01:51:23.998Z,12.81
2022-10-19T01:52:23.009Z,12.84
2022-10-19T01:53:22.986Z,12.84
2022-10-19T01:54:22.971Z,12.84
2022-10-19T01:55:22.956Z,12.86
2022-10-19T01:56:22.987Z,12.84
2022-10-19T01:57:23.039Z,12.86
2022-10-19T01:58:22.931Z,12.86
2022-10-19T01:59:23.802Z,12.86
2022-10-19T02:00:22.929Z,12.86
2022-10-19T02:01:22.887Z,12.86
2022-10-19T02:02:23.018Z,12.84
2022-10-19T02:03:22.889Z,12.84
2022-10-19T02:04:22.898Z,12.83
2022-10-19T02:05:22.848Z,12.83
2022-10-19T02:06:22.860Z,12.78
2022-10-19T02:07:22.900Z,12.78
2022-10-19T02:08:22.861Z,12.76
2022-10-19T02:09:22.815Z,12.76
2022-10-19T02:10:22.863Z,12.75
2022-10-19T02:11:22.788Z,12.73
2022-10-19T02:12:22.776Z,12.72
2022-10-19T02:13:22.756Z,12.73
2022-10-19T02:14:22.799Z,12.75
2022-10-19T02:15:22.821Z,12.72
2022-10-19T02:16:22.786Z,12.73
2022-10-19T02:17:22.813Z,12.72
2022-10-19T02:18:22.701Z,12.72
2022-10-19T02:20:22.737Z,12.73
2022-10-19T02:21:22.705Z,12.72
2022-10-19T02:22:23.486Z,12.72
2022-10-19T02:23:22.668Z,12.73
2022-10-19T02:24:22.713Z,12.75
2022-10-19T02:25:22.648Z,12.75
2022-10-19T02:26:22.828Z,12.75
2022-10-19T02:27:22.740Z,12.76
2022-10-19T02:28:22.672Z,12.76
2022-10-19T02:29:22.667Z,12.78
2022-10-19T02:30:22.586Z,12.78
2022-10-19T02:31:22.622Z,12.80
2022-10-19T02:32:22.729Z,12.81
2022-10-19T02:33:22.587Z,12.80
2022-10-19T02:34:22.539Z,12.78
2022-10-19T02:35:22.518Z,12.80
2022-10-19T02:36:22.516Z,12.80
2022-10-19T02:37:25.495Z,12.78
2022-10-19T02:38:22.532Z,12.78
2022-10-19T02:39:22.471Z,12.78
2022-10-19T02:40:22.470Z,12.76
2022-10-19T02:41:22.439Z,12.76
2022-10-19T02:42:22.437Z,12.76
2022-10-19T02:43:22.440Z,12.75
2022-10-19T02:44:22.582Z,12.73
2022-10-19T02:45:22.393Z,12.75
2022-10-19T02:46:22.384Z,12.75
2022-10-19T02:47:22.489Z,12.76
2022-10-19T02:48:22.398Z,12.73
2022-10-19T02:49:22.358Z,12.75
2022-10-19T02:50:22.404Z,12.75
2022-10-19T02:51:22.328Z,12.76
2022-10-19T02:52:22.320Z,12.76
2022-10-19T02:53:22.303Z,12.76
2022-10-19T02:54:22.325Z,12.76
2022-10-19T02:55:22.286Z,12.75
2022-10-19T02:56:22.317Z,12.76
2022-10-19T02:57:22.967Z,12.76
2022-10-19T02:58:22.257Z,12.76
2022-10-19T02:59:22.239Z,12.78
2022-10-19T03:00:22.241Z,12.80
2022-10-19T03:01:22.214Z,12.78
2022-10-19T03:02:22.266Z,12.76
2022-10-19T03:03:22.219Z,12.78
2022-10-19T03:04:22.218Z,12.78
2022-10-19T03:05:22.195Z,12.81
2022-10-19T03:06:22.189Z,12.80
2022-10-19T03:07:22.151Z,12.81
2022-10-19T03:08:22.184Z,12.80
2022-10-19T03:09:22.130Z,12.81
2022-10-19T03:10:22.141Z,12.84
2022-10-19T03:11:22.106Z,12.84
2022-10-19T03:12:22.148Z,12.87
2022-10-19T03:13:22.088Z,12.87
2022-10-19T03:14:22.121Z,12.86
2022-10-19T03:15:22.978Z,12.87
2022-10-19T03:16:22.051Z,12.88
2022-10-19T03:17:22.100Z,12.88
2022-10-19T03:18:22.022Z,12.88
2022-10-19T03:19:22.013Z,12.90
2022-10-19T03:20:22.040Z,12.90
2022-10-19T03:21:22.013Z,12.90
2022-10-19T03:22:22.026Z,12.91
2022-10-19T03:23:21.962Z,12.91
2022-10-19T03:24:21.973Z,12.88
2022-10-19T03:25:21.941Z,12.87
2022-10-19T03:26:21.983Z,12.88
2022-10-19T03:27:21.950Z,12.87
2022-10-19T03:28:21.902Z,12.87
2022-10-19T03:29:21.907Z,12.86
2022-10-19T03:30:21.894Z,12.88
2022-10-19T03:31:21.881Z,12.88
2022-10-19T03:32:21.913Z,12.90
2022-10-19T03:33:21.942Z,12.88
2022-10-19T03:34:21.888Z,12.90
2022-10-19T03:35:21.841Z,12.91
2022-10-19T03:36:21.813Z,12.91
2022-10-19T03:37:21.818Z,12.91
2022-10-19T03:38:21.847Z,12.90
2022-10-19T03:39:21.828Z,12.90
2022-10-19T03:40:21.861Z,12.88
2022-10-19T03:41:21.785Z,12.88
2022-10-19T03:42:21.756Z,12.88
2022-10-19T03:43:21.743Z,12.87
2022-10-19T03:44:21.803Z,12.87
2022-10-19T03:45:21.985Z,12.86
2022-10-19T03:46:21.707Z,12.86
2022-10-19T03:47:21.701Z,12.87
2022-10-19T03:48:21.684Z,12.87
2022-10-19T03:49:21.683Z,12.88
2022-10-19T03:50:21.699Z,12.87
2022-10-19T03:51:21.670Z,12.87
2022-10-19T03:52:21.637Z,12.87
2022-10-19T03:53:21.644Z,12.86
2022-10-19T03:54:24.983Z,12.86
2022-10-19T03:55:21.611Z,12.86
2022-10-19T03:56:21.640Z,12.87
2022-10-19T03:57:21.624Z,12.87
2022-10-19T03:58:21.601Z,12.86
2022-10-19T03:59:21.570Z,12.86
2022-10-19T04:00:21.552Z,12.87
2022-10-19T04:01:21.598Z,12.87
2022-10-19T04:02:21.576Z,12.84
2022-10-19T04:03:21.545Z,12.86
2022-10-19T04:04:21.623Z,12.86
2022-10-19T04:05:21.496Z,12.86
2022-10-19T04:06:22.191Z,12.86
2022-10-19T04:07:21.471Z,12.87
2022-10-19T04:08:21.494Z,12.87
2022-10-19T04:09:21.483Z,12.87
2022-10-19T04:10:21.466Z,12.87
2022-10-19T04:11:21.432Z,12.88
2022-10-19T04:12:21.423Z,12.88
2022-10-19T04:13:21.406Z,12.86
2022-10-19T04:14:31.841Z,12.84
2022-10-19T04:15:21.397Z,12.86
2022-10-19T04:16:21.369Z,12.83
2022-10-19T04:17:21.380Z,12.81
2022-10-19T04:18:21.349Z,12.81
2022-10-19T04:19:21.347Z,12.83
2022-10-19T04:20:21.363Z,12.81
2022-10-19T04:21:21.317Z,12.80
2022-10-19T04:22:21.552Z,12.76
2022-10-19T04:23:21.293Z,12.75
2022-10-19T04:24:21.282Z,12.75
2022-10-19T04:25:21.273Z,12.73
2022-10-19T04:26:21.288Z,12.72
2022-10-19T04:27:21.259Z,12.72
2022-10-19T04:28:21.229Z,12.69
2022-10-19T04:29:22.818Z,12.69
2022-10-19T04:30:21.205Z,12.68
2022-10-19T04:31:21.201Z,12.68
2022-10-19T04:32:21.230Z,12.68
2022-10-19T04:33:21.204Z,12.66
2022-10-19T04:34:21.228Z,12.66
2022-10-19T04:35:21.449Z,12.65
2022-10-19T04:36:21.135Z,12.65
2022-10-19T04:37:21.937Z,12.65
2022-10-19T04:38:21.177Z,12.66
2022-10-19T04:39:21.154Z,12.65
2022-10-19T04:40:21.099Z,12.63
2022-10-19T04:41:21.103Z,12.66
2022-10-19T04:42:21.075Z,12.65
2022-10-19T04:43:21.067Z,12.65
2022-10-19T04:44:21.214Z,12.66
2022-10-19T04:45:21.050Z,12.65
2022-10-19T04:46:21.033Z,12.65
2022-10-19T04:47:21.019Z,12.65
2022-10-19T04:48:21.005Z,12.65
2022-10-19T04:49:21.008Z,12.65
2022-10-19T04:50:21.359Z,12.65
2022-10-19T04:51:20.979Z,12.66
2022-10-19T04:52:21.212Z,12.65
2022-10-19T04:53:21.137Z,12.66
2022-10-19T04:54:20.944Z,12.66
2022-10-19T04:55:20.922Z,12.65
2022-10-19T04:56:20.957Z,12.66
2022-10-19T04:57:20.904Z,12.66
2022-10-19T04:58:20.901Z,12.66
2022-10-19T04:59:20.877Z,12.65
2022-10-19T05:00:20.874Z,12.68
2022-10-19T05:01:20.960Z,12.66
2022-10-19T05:02:20.886Z,12.66
2022-10-19T05:03:21.490Z,12.66
2022-10-19T05:04:20.830Z,12.66
2022-10-19T05:05:20.837Z,12.66
2022-10-19T05:06:20.807Z,12.66
2022-10-19T05:07:20.826Z,12.68
2022-10-19T05:08:20.818Z,12.66
2022-10-19T05:09:20.790Z,12.66
2022-10-19T05:10:20.805Z,12.69
2022-10-19T05:11:20.746Z,12.68
2022-10-19T05:12:20.750Z,12.68
2022-10-19T05:13:20.726Z,12.68
2022-10-19T05:14:20.832Z,12.68
2022-10-19T05:15:20.741Z,12.68
2022-10-19T05:16:20.687Z,12.68
2022-10-19T05:17:20.704Z,12.66
2022-10-19T05:18:20.663Z,12.66
2022-10-19T05:19:20.671Z,12.68
2022-10-19T05:20:20.680Z,12.69
2022-10-19T05:21:20.656Z,12.69
2022-10-19T05:22:20.628Z,12.68
2022-10-19T05:23:20.681Z,12.69
2022-10-19T05:24:20.603Z,12.69
2022-10-19T05:25:20.595Z,12.69
2022-10-19T05:26:20.624Z,12.69
2022-10-19T05:27:20.567Z,12.70
2022-10-19T05:28:28.504Z,12.69
2022-10-19T05:29:26.518Z,12.72
2022-10-19T05:30:26.520Z,12.70
2022-10-19T05:31:20.547Z,12.72
2022-10-19T05:32:21.467Z,12.70
2022-10-19T05:33:20.511Z,12.70
2022-10-19T05:34:20.505Z,12.69
2022-10-19T05:35:22.506Z,12.69
2022-10-19T05:36:20.480Z,12.69
2022-10-19T05:37:20.455Z,12.69
2022-10-19T05:38:20.491Z,12.69
2022-10-19T05:39:20.480Z,12.69
2022-10-19T05:40:20.443Z,12.68
2022-10-19T05:41:20.440Z,12.68
2022-10-19T05:42:20.402Z,12.68
2022-10-19T05:43:20.387Z,12.66
2022-10-19T05:44:20.429Z,12.69
2022-10-19T05:45:20.375Z,12.68
2022-10-19T05:46:20.970Z,12.68
2022-10-19T05:47:20.392Z,12.68
2022-10-19T05:48:20.387Z,12.68
2022-10-19T05:49:20.325Z,12.68
2022-10-19T05:50:20.365Z,12.69
2022-10-19T05:51:20.298Z,12.69
2022-10-19T05:52:20.995Z,12.70
2022-10-19T05:53:20.915Z,12.72
2022-10-19T05:54:21.857Z,12.73
2022-10-19T05:55:20.255Z,12.70
2022-10-19T05:56:20.326Z,12.70
2022-10-19T05:57:20.239Z,12.72
2022-10-19T05:58:20.223Z,12.73
2022-10-19T05:59:20.259Z,12.72
2022-10-19T06:00:20.186Z,12.72
2022-10-19T06:01:20.973Z,12.73
2022-10-19T06:02:20.257Z,12.72
2022-10-19T06:03:20.168Z,12.72
2022-10-19T06:04:20.168Z,12.72
2022-10-19T06:05:20.167Z,12.72
2022-10-19T06:06:20.170Z,12.73
2022-10-19T06:07:20.123Z,12.73
2022-10-19T06:08:20.140Z,12.75
2022-10-19T06:09:21.005Z,12.75
2022-10-19T06:10:20.081Z,12.75
2022-10-19T06:11:20.096Z,12.73
2022-10-19T06:12:24.260Z,12.73
2022-10-19T06:13:20.178Z,12.73
2022-10-19T06:14:20.098Z,12.73
2022-10-19T06:15:20.034Z,12.75
2022-10-19T06:16:20.007Z,12.75
2022-10-19T06:17:20.031Z,12.73
2022-10-19T06:18:20.910Z,12.75
2022-10-19T06:19:19.986Z,12.75
2022-10-19T06:20:20.029Z,12.76
2022-10-19T06:21:19.958Z,12.76
2022-10-19T06:22:19.959Z,12.76
2022-10-19T06:23:19.935Z,12.80
2022-10-19T06:24:19.966Z,12.78
2022-10-19T06:25:20.498Z,12.80
2022-10-19T06:26:19.956Z,12.78
2022-10-19T06:27:20.000Z,12.78
2022-10-19T06:28:19.875Z,12.76
2022-10-19T06:29:19.873Z,12.76
2022-10-19T06:30:19.935Z,12.76
2022-10-19T06:31:19.857Z,12.76
2022-10-19T06:32:19.875Z,12.75
2022-10-19T06:33:19.830Z,12.73
2022-10-19T06:34:19.859Z,12.75
2022-10-19T06:35:19.801Z,12.76
2022-10-19T06:36:19.826Z,12.75
2022-10-19T06:37:19.792Z,12.73
2022-10-19T06:38:20.053Z,12.75
2022-10-19T06:39:19.766Z,12.76
2022-10-19T06:40:19.778Z,12.76
2022-10-19T06:41:19.741Z,12.75
2022-10-19T06:42:19.757Z,12.75
2022-10-19T06:43:19.725Z,12.75
2022-10-19T06:44:19.806Z,12.75
2022-10-19T06:45:20.015Z,12.73
2022-10-19T06:46:19.675Z,12.73
2022-10-19T06:47:19.681Z,12.76
2022-10-19T06:48:19.663Z,12.78
2022-10-19T06:49:19.656Z,12.80
2022-10-19T06:50:19.678Z,12.83
2022-10-19T06:51:19.629Z,12.83
2022-10-19T06:52:19.611Z,12.84
2022-10-19T06:53:19.609Z,12.84
2022-10-19T06:54:19.613Z,12.87
2022-10-19T06:55:19.647Z,12.88
2022-10-19T06:56:19.639Z,12.90
2022-10-19T06:57:19.807Z,12.90
2022-10-19T06:58:19.555Z,12.91
2022-10-19T06:59:19.539Z,12.93
2022-10-19T07:00:19.514Z,12.94
2022-10-19T07:01:19.788Z,12.95
2022-10-19T07:02:19.617Z,12.98
2022-10-19T07:03:19.516Z,13.01
2022-10-19T07:04:19.471Z,13.03
2022-10-19T07:05:19.471Z,13.03
2022-10-19T07:06:19.507Z,13.03
2022-10-19T07:07:19.568Z,13.02
2022-10-19T07:08:19.556Z,13.03
2022-10-19T07:09:19.421Z,13.03
2022-10-19T07:10:19.411Z,13.05
2022-10-19T07:11:19.404Z,13.05
2022-10-19T07:12:19.390Z,13.05
2022-10-19T07:13:19.385Z,13.05
2022-10-19T07:14:19.419Z,13.06
2022-10-19T07:15:19.357Z,13.06
2022-10-19T07:16:20.985Z,13.08
2022-10-19T07:17:19.326Z,13.06
2022-10-19T07:18:19.322Z,13.09
2022-10-19T07:19:19.343Z,13.11
2022-10-19T07:20:19.370Z,13.12
2022-10-19T07:21:19.287Z,13.16
2022-10-19T07:22:24.349Z,13.19
2022-10-19T07:23:19.281Z,13.19
2022-10-19T07:24:19.256Z,13.23
2022-10-19T07:25:19.241Z,13.24
2022-10-19T07:26:19.281Z,13.27
2022-10-19T07:27:19.232Z,13.27
2022-10-19T07:28:20.081Z,13.31
2022-10-19T07:29:20.005Z,13.33
2022-10-19T07:30:19.193Z,13.39
2022-10-19T07:31:19.211Z,13.43
2022-10-19T07:32:19.236Z,13.45
2022-10-19T07:33:19.183Z,13.49
2022-10-19T07:34:19.148Z,13.49
2022-10-19T07:35:19.133Z,13.49
2022-10-19T07:36:19.122Z,13.49
2022-10-19T07:37:19.110Z,13.49
2022-10-19T07:38:19.162Z,13.46
2022-10-19T07:39:19.094Z,13.45
2022-10-19T07:40:19.086Z,13.43
2022-10-19T07:41:19.062Z,13.43
2022-10-19T07:42:19.077Z,13.43
2022-10-19T07:43:19.047Z,13.46
2022-10-19T07:44:19.153Z,13.49
2022-10-19T07:45:19.069Z,13.55
2022-10-19T07:46:19.015Z,13.58
2022-10-19T07:47:19.008Z,13.60
2022-10-19T07:48:18.983Z,13.61
2022-10-19T07:49:19.011Z,13.61
2022-10-19T07:50:19.029Z,13.60
2022-10-19T07:51:19.010Z,13.62
2022-10-19T07:52:18.982Z,13.65
2022-10-19T07:53:18.930Z,13.68
2022-10-19T07:54:18.933Z,13.73
2022-10-19T07:55:18.949Z,13.73
2022-10-19T07:56:18.928Z,13.78
2022-10-19T07:57:19.400Z,13.80
2022-10-19T07:58:18.874Z,13.86
2022-10-19T07:59:18.872Z,13.89
2022-10-19T08:00:18.856Z,13.91
2022-10-19T08:01:18.841Z,13.94
2022-10-19T08:02:18.949Z,13.98
2022-10-19T08:04:13.770Z,14.01
2022-10-19T08:05:00.211Z,14.03
2022-10-19T08:05:18.837Z,14.03
2022-10-19T08:06:18.783Z,14.03
2022-10-19T08:07:18.773Z,14.04
2022-10-19T08:08:18.801Z,14.04
2022-10-19T08:09:47.139Z,14.03
2022-10-19T08:10:18.771Z,14.04
2022-10-19T08:11:18.726Z,14.05
2022-10-19T08:12:18.713Z,14.07
2022-10-19T08:13:18.705Z,14.12
2022-10-19T08:14:18.758Z,14.15
2022-10-19T08:15:18.707Z,14.15
2022-10-19T08:16:18.677Z,14.18
2022-10-19T08:17:18.687Z,14.22
2022-10-19T08:18:18.693Z,14.23
2022-10-19T08:19:18.636Z,14.23
2022-10-19T08:20:18.919Z,14.23
2022-10-19T08:21:18.615Z,14.23
2022-10-19T08:22:18.600Z,14.26
2022-10-19T08:23:18.592Z,14.28
2022-10-19T08:24:18.590Z,14.30
2022-10-19T08:25:18.574Z,14.31
2022-10-19T08:26:19.407Z,14.31
2022-10-19T08:27:18.546Z,14.33
2022-10-19T08:28:18.547Z,14.33
2022-10-19T08:29:18.688Z,14.34
2022-10-19T08:30:18.665Z,14.37
2022-10-19T08:31:18.498Z,14.34
2022-10-19T08:32:18.616Z,14.37
2022-10-19T08:33:18.537Z,14.36
2022-10-19T08:34:18.462Z,14.34
2022-10-19T08:35:18.462Z,14.37
2022-10-19T08:36:18.447Z,14.40
2022-10-19T08:37:26.422Z,14.40
2022-10-19T08:38:18.498Z,14.40
2022-10-19T08:39:18.412Z,14.40
2022-10-19T08:40:18.422Z,14.44
2022-10-19T08:41:18.422Z,14.45
2022-10-19T08:42:18.389Z,14.48
2022-10-19T08:43:18.371Z,14.53
2022-10-19T08:44:18.400Z,14.58
2022-10-19T08:45:18.379Z,14.66
2022-10-19T08:46:18.336Z,14.68
2022-10-19T08:47:22.341Z,14.73
2022-10-19T08:48:18.329Z,14.74
2022-10-19T08:49:18.327Z,14.73
2022-10-19T08:50:18.343Z,14.68
2022-10-19T08:51:18.967Z,14.66
2022-10-19T08:52:18.267Z,14.68
2022-10-19T08:53:18.279Z,14.70
2022-10-19T08:54:18.242Z,14.71
2022-10-19T08:55:20.561Z,14.77
2022-10-19T08:56:32.543Z,14.79
2022-10-19T08:57:18.294Z,14.85
2022-10-19T08:58:18.480Z,14.90
2022-10-19T08:59:18.185Z,14.93
2022-10-19T09:00:18.180Z,14.93
2022-10-19T09:01:18.165Z,14.93
2022-10-19T09:02:18.192Z,14.94
2022-10-19T09:03:23.131Z,14.94
2022-10-19T09:04:18.144Z,14.94
2022-10-19T09:05:18.136Z,14.96
2022-10-19T09:06:18.112Z,15.00
2022-10-19T09:07:18.096Z,15.08
2022-10-19T09:08:18.163Z,15.07
2022-10-19T09:09:18.112Z,15.10
2022-10-19T09:10:18.094Z,15.11
2022-10-19T09:11:18.048Z,15.10
2022-10-19T09:12:18.044Z,15.10
2022-10-19T09:13:18.030Z,15.08
2022-10-19T09:14:18.086Z,15.07
2022-10-19T09:15:18.017Z,15.04
2022-10-19T09:16:18.006Z,15.05
2022-10-19T09:17:17.985Z,15.11
2022-10-19T09:18:17.998Z,15.12
2022-10-19T09:19:17.963Z,15.15
2022-10-19T09:20:17.992Z,15.25
2022-10-19T09:21:17.942Z,15.25
2022-10-19T09:22:17.958Z,15.26
2022-10-19T09:23:17.961Z,15.27
2022-10-19T09:24:17.910Z,15.23
2022-10-19T09:25:17.910Z,15.32
2022-10-19T09:26:17.937Z,15.36
2022-10-19T09:27:17.872Z,15.37
2022-10-19T09:28:17.865Z,15.43
2022-10-19T09:29:17.867Z,15.45
2022-10-19T09:30:17.865Z,15.45
2022-10-19T09:31:17.823Z,15.44
2022-10-19T09:32:17.881Z,15.45
2022-10-19T09:33:17.807Z,15.52
2022-10-19T09:34:17.833Z,15.51
2022-10-19T09:35:17.805Z,15.57
2022-10-19T09:36:22.813Z,15.63
2022-10-19T09:37:24.814Z,15.63
2022-10-19T09:38:17.803Z,15.62
2022-10-19T09:39:17.751Z,15.55
2022-10-19T09:40:17.872Z,15.51
2022-10-19T09:41:17.731Z,15.48
2022-10-19T09:42:17.747Z,15.50
2022-10-19T09:43:17.705Z,15.54
2022-10-19T09:44:17.741Z,15.59
2022-10-19T09:45:17.683Z,15.66
2022-10-19T09:46:20.324Z,15.69
2022-10-19T09:47:17.669Z,15.76
2022-10-19T09:48:17.905Z,15.76
2022-10-19T09:49:17.634Z,15.85
2022-10-19T09:50:18.127Z,15.90
2022-10-19T09:51:17.604Z,15.96
2022-10-19T09:52:17.594Z,15.94
2022-10-19T09:53:17.603Z,15.90
2022-10-19T09:54:17.581Z,15.81
2022-10-19T09:55:17.580Z,15.73
2022-10-19T09:56:17.598Z,15.72
2022-10-19T09:57:17.535Z,15.67
2022-10-19T09:58:17.686Z,15.66
2022-10-19T09:59:17.625Z,15.67
2022-10-19T10:00:17.633Z,15.69
2022-10-19T10:01:17.493Z,15.67
2022-10-19T10:02:17.550Z,15.62
2022-10-19T10:03:17.470Z,15.57
2022-10-19T10:04:17.481Z,15.59
2022-10-19T10:05:17.459Z,15.55
2022-10-19T10:06:17.453Z,15.57
2022-10-19T10:07:17.432Z,15.67
2022-10-19T10:08:17.487Z,15.76
2022-10-19T10:09:17.420Z,15.88
2022-10-19T10:10:17.420Z,15.99
2022-10-19T10:11:17.413Z,16.10
2022-10-19T10:12:17.900Z,16.17
2022-10-19T10:13:17.352Z,16.22
2022-10-19T10:14:17.429Z,16.28
2022-10-19T10:15:17.335Z,16.37
2022-10-19T10:16:17.320Z,16.40
2022-10-19T10:17:17.389Z,16.44
2022-10-19T10:18:17.346Z,16.40
2022-10-19T10:19:17.326Z,16.34
2022-10-19T10:20:17.336Z,16.29
2022-10-19T10:21:18.057Z,16.31
2022-10-19T10:22:17.284Z,16.25
2022-10-19T10:23:17.963Z,16.17
2022-10-19T10:24:17.295Z,16.18
2022-10-19T10:25:17.227Z,16.21
2022-10-19T10:26:17.316Z,16.17
2022-10-19T10:27:17.210Z,16.17
2022-10-19T10:28:17.187Z,16.16
2022-10-19T10:29:17.199Z,16.12
2022-10-19T10:30:17.177Z,16.06
2022-10-19T10:31:17.166Z,15.92
2022-10-19T10:32:17.185Z,15.85
2022-10-19T10:33:27.130Z,15.76
2022-10-19T10:34:23.217Z,15.63
2022-10-19T10:35:17.130Z,15.51
2022-10-19T10:36:17.106Z,15.45
2022-10-19T10:37:17.081Z,15.43
2022-10-19T10:38:17.134Z,15.45
2022-10-19T10:39:17.058Z,15.48
2022-10-19T10:40:19.999Z,15.51
2022-10-19T10:41:17.076Z,15.55
2022-10-19T10:42:17.050Z,15.57
2022-10-19T10:43:17.057Z,15.60
2022-10-19T10:44:17.112Z,15.59
2022-10-19T10:45:18.009Z,15.57
2022-10-19T10:46:17.033Z,15.59
2022-10-19T10:47:17.090Z,15.62
2022-10-19T10:48:17.035Z,15.60
2022-10-19T10:49:16.956Z,15.62
2022-10-19T10:50:17.001Z,15.60
2022-10-19T10:51:16.928Z,15.62
2022-10-19T10:52:16.912Z,15.62
2022-10-19T10:53:16.960Z,15.59
2022-10-19T10:54:16.900Z,15.52
2022-10-19T10:55:16.898Z,15.45
2022-10-19T10:56:16.929Z,15.45
2022-10-19T10:57:17.074Z,15.47
2022-10-19T10:58:16.903Z,15.48
2022-10-19T10:59:16.880Z,15.50
2022-10-19T11:00:16.852Z,15.51
2022-10-19T11:01:16.854Z,15.50
2022-10-19T11:02:16.961Z,15.45
2022-10-19T11:03:17.034Z,15.43
2022-10-19T11:04:16.784Z,15.37
2022-10-19T11:05:16.779Z,15.36
2022-10-19T11:06:16.834Z,15.36
2022-10-19T11:07:16.778Z,15.36
2022-10-19T11:08:16.821Z,15.35
2022-10-19T11:09:16.765Z,15.33
2022-10-19T11:10:16.722Z,15.33
2022-10-19T11:11:16.724Z,15.32
2022-10-19T11:12:16.738Z,15.33
2022-10-19T11:13:16.734Z,15.33
2022-10-19T11:14:16.744Z,15.30
2022-10-19T11:15:16.708Z,15.27
2022-10-19T11:16:16.666Z,15.26
2022-10-19T11:17:16.655Z,15.25
2022-10-19T11:18:16.847Z,15.22
2022-10-19T11:19:16.638Z,15.17
2022-10-19T11:20:16.693Z,15.17
2022-10-19T11:21:16.607Z,15.25
2022-10-19T11:22:16.581Z,15.32
2022-10-19T11:23:16.618Z,15.39
2022-10-19T11:24:16.558Z,15.45
2022-10-19T11:25:16.586Z,15.48
2022-10-19T11:26:16.609Z,15.48
2022-10-19T11:27:16.548Z,15.47
2022-10-19T11:28:16.578Z,15.48
2022-10-19T11:29:16.512Z,15.50
2022-10-19T11:30:16.492Z,15.50
2022-10-19T11:31:16.534Z,15.54
2022-10-19T11:32:16.474Z,15.55
2022-10-19T11:33:16.463Z,15.57
2022-10-19T11:34:16.783Z,15.62
2022-10-19T11:35:16.447Z,15.62
2022-10-19T11:36:16.470Z,15.69
2022-10-19T11:37:16.436Z,15.67
2022-10-19T11:38:21.415Z,15.70
2022-10-19T11:39:16.647Z,15.70
2022-10-19T11:40:19.906Z,15.76
2022-10-19T11:41:18.597Z,15.83
2022-10-19T11:42:16.360Z,15.90
2022-10-19T11:43:16.396Z,15.91
2022-10-19T11:44:16.348Z,15.91
2022-10-19T11:45:16.348Z,15.98
2022-10-19T11:46:16.354Z,16.00
2022-10-19T11:47:16.310Z,16.03
2022-10-19T11:48:16.299Z,16.12
2022-10-19T11:49:16.288Z,16.13
2022-10-19T11:50:16.276Z,16.06
2022-10-19T11:51:21.673Z,16.02
2022-10-19T11:52:16.289Z,15.94
2022-10-19T11:53:16.249Z,15.87
2022-10-19T11:54:16.246Z,15.91
2022-10-19T11:55:16.224Z,15.99
2022-10-19T11:56:16.209Z,16.09
2022-10-19T11:57:16.227Z,16.18
2022-10-19T11:58:16.184Z,16.21
2022-10-19T11:59:16.172Z,16.21
2022-10-19T12:00:37.715Z,16.24
2022-10-19T12:01:16.203Z,16.22
2022-10-19T12:02:16.194Z,16.12
2022-10-19T12:03:16.162Z,16.13
2022-10-19T12:04:16.123Z,16.18
2022-10-19T12:05:16.105Z,16.22
2022-10-19T12:06:16.110Z,16.25
2022-10-19T12:07:16.118Z,16.28
2022-10-19T12:08:16.115Z,16.36
2022-10-19T12:09:16.104Z,16.41
2022-10-19T12:10:16.042Z,16.40
2022-10-19T12:11:16.049Z,16.41
2022-10-19T12:12:16.026Z,16.47
2022-10-19T12:13:16.121Z,16.51
2022-10-19T12:14:16.004Z,16.59
2022-10-19T12:15:15.985Z,16.68
2022-10-19T12:16:15.974Z,16.74
2022-10-19T12:17:15.969Z,16.68
2022-10-19T12:18:15.969Z,16.68
2022-10-19T12:19:16.001Z,16.61
2022-10-19T12:20:18.886Z,16.54
2022-10-19T12:21:15.935Z,16.44
2022-10-19T12:22:15.905Z,16.43
2022-10-19T12:23:15.897Z,16.40
2022-10-19T12:24:15.936Z,16.44
2022-10-19T12:25:15.898Z,16.43
2022-10-19T12:26:15.991Z,16.59
2022-10-19T12:27:15.926Z,17.16
2022-10-19T12:29:26.535Z,19.38
2022-10-19T12:30:27.598Z,20.19
2022-10-19T12:31:27.434Z,21.11
2022-10-19T12:32:27.426Z,21.81
2022-10-19T12:33:27.591Z,22.26
2022-10-19T12:34:27.437Z,22.70
2022-10-19T12:35:27.419Z,23.07
2022-10-19T12:36:27.543Z,23.36
2022-10-19T12:37:27.367Z,23.63
2022-10-19T12:38:27.369Z,22.21
2022-10-19T12:39:27.502Z,21.45
2022-10-19T12:40:27.339Z,21.19
2022-10-19T12:41:27.313Z,20.14
2022-10-19T12:42:27.307Z,20.85
2022-10-19T12:43:27.370Z,20.93
2022-10-19T12:44:27.306Z,21.89
2022-10-19T12:45:27.314Z,22.38
2022-10-19T12:46:27.271Z,22.76
2022-10-19T12:47:27.288Z,23.11
2022-10-19T12:48:27.275Z,23.26
2022-10-19T12:49:27.377Z,22.07
2022-10-19T12:50:27.237Z,21.74
2022-10-19T12:51:27.241Z,20.98
2022-10-19T12:52:27.404Z,20.32
2022-10-19T12:54:27.190Z,19.24
2022-10-19T12:55:27.301Z,21.14